Time;durP1;ratioP1;P1;durP2;ratioP2;P2;SDS_P1;SDS_P2;PMS_P1;PMS_P2;Temp;Humidity;BMP_temperature;BMP_pressure;BME280_temperature;BME280_humidity;BME280_pressure;Samples;Min_cycle;Max_cycle;Signal;HPM_P1;HPM_P2
2022/06/05 00:01:57;;;;;;;16.77;5.20;;;21.70;99.90;;;;;;5030423;28;20044;-79
2022/06/05 00:04:57;;;;;;;22.55;5.75;;;21.60;99.90;;;;;;5033653;28;20029;-79
2022/06/05 00:08:04;;;;;;;13.25;5.82;;;21.60;99.90;;;;;;5024273;28;20037;-79
2022/06/05 00:10:55;;;;;;;11.70;5.30;;;21.70;99.90;;;;;;5013836;28;20502;-79
2022/06/05 00:13:27;;;;;;;15.35;6.63;;;21.70;99.90;;;;;;5026646;28;20037;-79
2022/06/05 00:15:53;;;;;;;16.55;6.30;;;21.60;99.90;;;;;;5033114;28;20025;-79
2022/06/05 00:18:19;;;;;;;12.68;6.55;;;21.60;99.90;;;;;;5033216;28;20653;-78
2022/06/05 00:20:45;;;;;;;15.82;6.68;;;21.80;99.90;;;;;;5032923;28;20494;-79
2022/06/05 00:23:11;;;;;;;16.70;6.30;;;21.70;99.90;;;;;;5033135;28;20399;-79
2022/06/05 00:25:50;;;;;;;14.98;5.85;;;21.70;99.90;;;;;;5033622;28;20036;-78
2022/06/05 00:28:34;;;;;;;15.23;6.38;;;21.70;99.90;;;;;;5032974;28;20030;-78
2022/06/05 00:31:22;;;;;;;15.50;6.07;;;21.60;99.90;;;;;;5033226;28;20045;-78
2022/06/05 00:33:48;;;;;;;12.65;5.13;;;21.60;99.90;;;;;;5032725;28;20447;-79
2022/06/05 00:36:32;;;;;;;13.80;6.07;;;21.70;99.90;;;;;;5033285;28;20075;-78
2022/06/05 00:39:21;;;;;;;22.00;6.23;;;21.70;99.90;;;;;;5017239;28;20448;-78
2022/06/05 00:42:01;;;;;;;11.98;6.13;;;21.60;99.90;;;;;;5033081;28;20120;-78
2022/06/05 00:44:50;;;;;;;14.40;6.07;;;21.60;99.90;;;;;;5033047;28;20029;-78
2022/06/05 00:47:19;;;;;;;13.35;6.38;;;21.50;99.90;;;;;;5032886;28;20120;-79
2022/06/05 00:49:52;;;;;;;14.27;6.25;;;21.50;99.90;;;;;;5032614;28;20048;-79
2022/06/05 00:52:20;;;;;;;19.90;6.80;;;21.40;99.90;;;;;;5032634;28;20650;-79
2022/06/05 00:54:46;;;;;;;18.58;7.00;;;21.60;99.90;;;;;;5032388;28;20045;-79
2022/06/05 00:57:13;;;;;;;14.45;5.65;;;21.70;99.90;;;;;;5032962;28;20021;-79
2022/06/05 00:59:42;;;;;;;14.63;5.88;;;21.80;99.90;;;;;;5032729;28;20029;-78
2022/06/05 01:02:09;;;;;;;16.33;6.10;;;21.80;99.90;;;;;;5032911;28;20033;-78
2022/06/05 01:04:38;;;;;;;20.95;7.07;;;21.80;99.90;;;;;;5032951;28;20021;-78
2022/06/05 01:07:04;;;;;;;15.65;7.32;;;21.70;99.90;;;;;;5027276;28;20036;-78
2022/06/05 01:09:29;;;;;;;19.40;6.18;;;21.80;99.90;;;;;;5020903;28;20109;-79
2022/06/05 01:12:16;;;;;;;15.20;6.65;;;21.70;99.90;;;;;;5022520;28;20112;-79
2022/06/05 01:14:57;;;;;;;13.07;6.30;;;21.70;99.90;;;;;;5032351;28;20030;-78
2022/06/05 01:17:25;;;;;;;17.65;6.03;;;21.60;99.90;;;;;;5032850;28;20057;-78
2022/06/05 01:20:00;;;;;;;15.32;6.63;;;21.30;99.90;;;;;;5032880;28;20029;-79
2022/06/05 01:22:44;;;;;;;17.63;5.50;;;21.10;99.90;;;;;;5032775;28;20033;-78
2022/06/05 01:25:17;;;;;;;12.63;5.80;;;20.90;99.90;;;;;;5030000;28;20037;-78
2022/06/05 01:27:54;;;;;;;13.85;5.55;;;21.10;99.90;;;;;;5032542;28;20365;-79
2022/06/05 01:30:22;;;;;;;13.10;5.70;;;20.90;99.90;;;;;;5032508;28;20050;-78
2022/06/05 01:33:07;;;;;;;15.10;6.35;;;21.00;99.90;;;;;;5032624;28;20033;-78
2022/06/05 01:35:53;;;;;;;14.50;5.68;;;20.90;99.90;;;;;;5032022;28;20029;-79
2022/06/05 01:38:38;;;;;;;13.48;6.40;;;21.00;99.90;;;;;;5032489;28;20116;-78
2022/06/05 01:41:47;;;;;;;14.57;6.47;;;20.90;99.90;;;;;;5032612;28;20040;-78
2022/06/05 01:44:19;;;;;;;19.45;6.63;;;21.00;99.90;;;;;;5031423;28;20041;-78
2022/06/05 01:46:45;;;;;;;14.05;5.55;;;21.10;99.90;;;;;;5015073;28;20077;-78
2022/06/05 01:49:57;;;;;;;18.13;6.75;;;21.10;99.90;;;;;;5031313;28;20120;-79
2022/06/05 01:52:36;;;;;;;15.40;6.07;;;21.20;99.90;;;;;;5028971;28;20048;-78
2022/06/05 01:55:11;;;;;;;18.42;6.30;;;21.20;99.90;;;;;;5032131;28;20029;-78
2022/06/05 01:57:37;;;;;;;13.57;5.88;;;21.10;99.90;;;;;;5031819;28;20033;-78
2022/06/05 02:00:16;;;;;;;16.15;6.32;;;21.10;99.90;;;;;;5031795;28;20040;-79
2022/06/05 02:03:06;;;;;;;14.93;5.70;;;21.20;99.90;;;;;;5014776;28;20373;-79
2022/06/05 02:05:43;;;;;;;11.90;6.20;;;21.30;99.90;;;;;;5015799;28;20473;-79
2022/06/05 02:08:19;;;;;;;19.60;7.53;;;21.30;99.90;;;;;;5016189;28;20022;-78
2022/06/05 02:11:04;;;;;;;12.73;7.15;;;21.50;99.90;;;;;;5016376;28;20041;-78
2022/06/05 02:13:30;;;;;;;12.73;5.60;;;21.40;99.90;;;;;;5035108;28;20068;-78
2022/06/05 02:15:56;;;;;;;13.35;5.97;;;21.30;99.90;;;;;;5035485;28;20036;-79
2022/06/05 02:18:23;;;;;;;12.30;5.93;;;21.30;99.90;;;;;;5035486;28;20034;-79
2022/06/05 02:20:50;;;;;;;11.30;5.95;;;21.20;99.90;;;;;;5035519;28;20029;-78
2022/06/05 02:23:23;;;;;;;15.70;6.05;;;21.30;99.90;;;;;;5034904;28;20057;-78
2022/06/05 02:25:50;;;;;;;16.27;6.00;;;21.20;99.90;;;;;;5035327;28;20029;-79
2022/06/05 02:28:18;;;;;;;13.13;6.55;;;20.90;99.90;;;;;;5035011;28;20531;-78
2022/06/05 02:31:02;;;;;;;18.70;7.55;;;20.70;99.90;;;;;;5034857;28;20049;-79
2022/06/05 02:33:34;;;;;;;14.05;5.85;;;20.60;99.90;;;;;;5034969;28;20403;-79
2022/06/05 02:36:26;;;;;;;19.17;6.18;;;20.50;99.90;;;;;;5035138;28;20040;-78
2022/06/05 02:39:04;;;;;;;9.80;5.75;;;20.40;99.90;;;;;;5035534;28;20075;-78
2022/06/05 02:41:55;;;;;;;18.15;6.35;;;20.60;99.90;;;;;;5033776;28;20373;-78
2022/06/05 02:44:34;;;;;;;21.75;7.20;;;20.90;99.90;;;;;;5035137;28;20056;-78
2022/06/05 02:47:11;;;;;;;11.85;5.75;;;21.00;99.90;;;;;;5034985;28;20084;-78
2022/06/05 02:49:42;;;;;;;12.10;6.20;;;20.70;99.90;;;;;;5035225;28;20084;-78
2022/06/05 02:52:09;;;;;;;15.98;7.05;;;20.60;99.90;;;;;;5034693;28;20049;-78
2022/06/05 02:54:47;;;;;;;18.17;6.70;;;20.60;99.90;;;;;;5034440;28;20033;-79
2022/06/05 02:57:13;;;;;;;16.92;6.22;;;20.70;99.90;;;;;;5034558;28;20057;-78
2022/06/05 02:59:39;;;;;;;15.25;6.78;;;20.90;99.90;;;;;;5034453;28;20483;-78
2022/06/05 03:04:49;;;;;;;14.32;6.78;;;20.70;99.90;;;;;;5028260;28;20052;-78
2022/06/05 03:07:15;;;;;;;14.25;6.40;;;21.00;99.90;;;;;;5030278;28;20387;-79
2022/06/05 03:09:41;;;;;;;14.70;7.20;;;21.00;99.90;;;;;;5030623;28;20033;-79
2022/06/05 03:12:07;;;;;;;15.85;6.43;;;21.10;99.90;;;;;;5029133;28;20100;-78
2022/06/05 03:14:33;;;;;;;12.35;6.30;;;21.00;99.90;;;;;;5029487;28;20049;-78
2022/06/05 03:16:58;;;;;;;12.45;5.93;;;20.90;99.90;;;;;;5025535;28;20025;-78
2022/06/05 03:19:24;;;;;;;14.35;6.60;;;20.90;99.90;;;;;;5007699;28;20430;-79
2022/06/05 03:21:50;;;;;;;14.68;6.75;;;21.00;99.90;;;;;;5007815;28;20091;-78
2022/06/05 03:24:16;;;;;;;14.63;6.93;;;21.00;99.90;;;;;;5021722;28;20480;-78
2022/06/05 03:26:42;;;;;;;16.80;6.38;;;21.10;99.90;;;;;;5010762;28;20603;-78
2022/06/05 03:29:08;;;;;;;14.75;6.45;;;21.00;99.90;;;;;;5010611;28;20037;-78
2022/06/05 03:31:37;;;;;;;14.10;6.93;;;21.00;99.90;;;;;;5010421;28;20037;-78
2022/06/05 03:34:03;;;;;;;14.52;6.47;;;21.00;99.90;;;;;;5010356;28;20076;-78
2022/06/05 03:36:30;;;;;;;13.93;6.65;;;21.00;99.90;;;;;;5010185;28;20030;-78
2022/06/05 03:38:55;;;;;;;12.82;7.00;;;21.00;99.90;;;;;;5022625;28;20400;-78
2022/06/05 03:41:21;;;;;;;15.45;6.00;;;21.20;99.90;;;;;;5029025;28;20025;-78
2022/06/05 03:43:47;;;;;;;13.40;6.20;;;21.20;99.90;;;;;;5029603;28;20120;-78
2022/06/05 03:46:14;;;;;;;14.38;6.43;;;21.00;99.90;;;;;;5029753;28;20029;-78
2022/06/05 03:48:40;;;;;;;12.93;6.25;;;20.90;99.90;;;;;;5029473;28;20495;-79
2022/06/05 03:51:12;;;;;;;14.80;6.07;;;21.00;99.90;;;;;;5030041;28;20026;-78
2022/06/05 03:53:38;;;;;;;20.67;6.25;;;21.10;99.90;;;;;;5029250;28;20439;-78
2022/06/05 03:56:10;;;;;;;11.38;6.07;;;21.10;99.90;;;;;;5013572;28;20034;-78
2022/06/05 03:58:36;;;;;;;17.23;7.38;;;21.10;99.90;;;;;;5008009;28;20084;-78
2022/06/05 04:01:02;;;;;;;12.82;6.55;;;21.10;99.90;;;;;;5012614;28;20025;-78
2022/06/05 04:03:28;;;;;;;13.98;6.25;;;21.10;99.90;;;;;;5026345;28;20069;-78
2022/06/05 04:05:53;;;;;;;16.52;6.75;;;21.00;99.90;;;;;;5026232;28;20080;-78
2022/06/05 04:08:19;;;;;;;14.50;6.72;;;21.00;99.90;;;;;;5026204;28;20053;-78
2022/06/05 04:10:44;;;;;;;17.10;7.45;;;21.00;99.90;;;;;;5020216;28;20105;-78
2022/06/05 04:13:10;;;;;;;16.85;6.90;;;21.00;99.90;;;;;;5006863;28;20562;-78
2022/06/05 04:15:40;;;;;;;13.55;6.55;;;21.10;99.90;;;;;;5006700;28;20037;-78
2022/06/05 04:18:06;;;;;;;15.70;6.55;;;21.20;99.90;;;;;;5006681;28;20030;-78
2022/06/05 04:20:33;;;;;;;15.55;6.55;;;21.20;99.90;;;;;;5016962;28;20359;-78
2022/06/05 04:23:00;;;;;;;15.55;7.00;;;21.20;99.90;;;;;;5025887;28;20166;-78
2022/06/05 04:25:26;;;;;;;16.65;6.45;;;21.10;99.90;;;;;;5014028;28;20117;-78
2022/06/05 04:27:52;;;;;;;12.80;6.85;;;21.10;99.90;;;;;;5006285;28;20114;-78
2022/06/05 04:30:18;;;;;;;15.05;7.03;;;21.20;99.90;;;;;;5012441;28;20052;-78
2022/06/05 04:32:44;;;;;;;13.20;6.25;;;21.20;99.90;;;;;;5026338;28;20026;-78
2022/06/05 04:35:10;;;;;;;19.10;6.65;;;21.20;99.90;;;;;;5025967;28;20022;-78
2022/06/05 04:37:36;;;;;;;12.43;6.20;;;21.10;99.90;;;;;;5026223;28;20030;-78
2022/06/05 04:40:04;;;;;;;12.35;6.28;;;21.10;99.90;;;;;;5023982;28;20025;-78
2022/06/05 04:42:30;;;;;;;15.45;6.53;;;21.00;99.90;;;;;;5025692;28;20033;-78
2022/06/05 04:44:57;;;;;;;19.05;6.70;;;21.00;99.90;;;;;;5025788;28;20038;-78
2022/06/05 04:47:23;;;;;;;16.02;6.63;;;21.10;99.90;;;;;;5006553;28;20038;-78
2022/06/05 04:49:48;;;;;;;14.80;6.18;;;21.00;99.90;;;;;;5006285;28;20038;-78
2022/06/05 04:52:14;;;;;;;11.50;5.88;;;20.90;99.90;;;;;;5005998;28;20038;-78
2022/06/05 04:54:40;;;;;;;21.38;8.20;;;21.00;99.90;;;;;;5005932;28;20480;-78
2022/06/05 04:57:06;;;;;;;12.05;6.22;;;21.00;99.90;;;;;;5024133;28;20583;-78
2022/06/05 04:59:31;;;;;;;11.18;6.53;;;21.00;99.90;;;;;;5025670;28;20073;-78
2022/06/05 05:01:57;;;;;;;19.40;6.53;;;20.90;99.90;;;;;;5025982;28;20083;-78
2022/06/05 05:04:23;;;;;;;16.13;6.35;;;20.90;99.90;;;;;;5025079;28;20100;-78
2022/06/05 05:06:48;;;;;;;13.63;5.60;;;21.10;99.90;;;;;;5025401;28;20048;-78
2022/06/05 05:09:14;;;;;;;13.95;6.03;;;21.20;99.90;;;;;;5025673;28;20071;-78
2022/06/05 05:11:40;;;;;;;11.18;5.55;;;21.20;99.90;;;;;;5010109;28;20153;-78
2022/06/05 05:14:06;;;;;;;12.35;6.45;;;21.30;99.90;;;;;;5004989;28;20041;-78
2022/06/05 05:16:32;;;;;;;20.15;6.22;;;21.40;99.90;;;;;;5021103;28;20181;-78
2022/06/05 05:18:58;;;;;;;20.17;7.93;;;21.40;99.90;;;;;;5025365;28;20037;-78
2022/06/05 05:21:25;;;;;;;15.02;7.28;;;21.50;99.90;;;;;;5025098;28;20499;-78
2022/06/05 05:23:52;;;;;;;12.80;6.75;;;21.60;99.90;;;;;;5025473;28;20044;-78
2022/06/05 05:26:20;;;;;;;13.48;6.20;;;21.60;99.90;;;;;;5026207;28;20845;-78
2022/06/05 05:28:46;;;;;;;16.83;7.28;;;21.50;99.90;;;;;;5025572;28;20030;-78
2022/06/05 05:31:17;;;;;;;13.57;6.13;;;21.40;99.90;;;;;;5025599;28;20095;-78
2022/06/05 05:33:43;;;;;;;12.73;6.60;;;21.30;99.90;;;;;;5025662;28;20072;-78
2022/06/05 05:36:09;;;;;;;11.90;6.05;;;21.40;99.90;;;;;;5025714;28;20030;-78
2022/06/05 05:38:36;;;;;;;13.93;5.97;;;21.50;99.90;;;;;;5029306;28;20038;-78
2022/06/05 05:43:45;;;;;;;;;;;21.60;99.90;;;;;;5009712;28;20048;-78
2022/06/05 05:46:13;;;;;;;12.65;5.97;;;21.70;99.90;;;;;;5023179;28;19913;-78
2022/06/05 05:48:39;;;;;;;11.80;6.10;;;21.80;99.90;;;;;;5029579;28;20056;-78
2022/06/05 05:51:15;;;;;;;14.43;6.93;;;21.80;99.90;;;;;;5029228;28;20033;-78
2022/06/05 05:53:41;;;;;;;11.63;6.78;;;22.00;99.90;;;;;;5029302;28;20025;-79
2022/06/05 05:56:11;;;;;;;16.30;7.20;;;22.00;99.90;;;;;;5029391;28;20026;-78
2022/06/05 05:58:39;;;;;;;14.50;5.57;;;22.20;99.90;;;;;;5029255;28;20427;-78
2022/06/05 06:01:07;;;;;;;13.23;6.70;;;22.20;99.90;;;;;;5028552;28;20175;-78
2022/06/05 06:03:34;;;;;;;14.00;6.63;;;22.10;99.90;;;;;;5017428;28;20104;-78
2022/06/05 06:06:00;;;;;;;19.05;6.60;;;22.10;99.90;;;;;;5028680;28;20116;-78
2022/06/05 06:08:27;;;;;;;20.50;8.20;;;22.20;99.90;;;;;;5029089;28;20510;-79
2022/06/05 06:10:53;;;;;;;15.80;6.93;;;22.20;99.90;;;;;;5028549;28;20026;-78
2022/06/05 06:13:19;;;;;;;12.88;6.68;;;22.40;99.90;;;;;;5029276;28;20037;-78
2022/06/05 06:15:45;;;;;;;13.32;5.80;;;22.50;99.90;;;;;;5028114;28;20120;-78
2022/06/05 06:18:11;;;;;;;17.58;7.32;;;22.50;99.90;;;;;;5028673;28;20033;-78
2022/06/05 06:20:37;;;;;;;17.10;7.03;;;22.50;99.90;;;;;;5026753;28;20033;-78
2022/06/05 06:23:03;;;;;;;21.75;6.82;;;22.60;99.90;;;;;;5012914;28;20116;-78
2022/06/05 06:25:29;;;;;;;11.90;6.57;;;22.60;99.90;;;;;;5028531;28;20084;-78
2022/06/05 06:27:54;;;;;;;17.15;6.38;;;22.60;99.90;;;;;;5028557;28;20448;-78
2022/06/05 06:30:20;;;;;;;20.38;8.25;;;22.60;99.90;;;;;;5028497;28;20048;-78
2022/06/05 06:32:45;;;;;;;20.33;7.65;;;22.60;99.90;;;;;;5028367;28;20034;-78
2022/06/05 06:35:11;;;;;;;15.95;7.75;;;22.60;99.90;;;;;;5028329;28;20064;-78
2022/06/05 06:37:37;;;;;;;15.60;7.05;;;22.70;99.90;;;;;;5028677;28;20025;-78
2022/06/05 06:40:03;;;;;;;10.30;6.30;;;22.60;99.90;;;;;;5014781;28;20054;-78
2022/06/05 06:42:29;;;;;;;13.55;6.57;;;22.60;99.90;;;;;;5008599;28;20034;-78
2022/06/05 06:44:56;;;;;;;18.90;7.82;;;22.70;99.90;;;;;;5008463;28;20065;-78
2022/06/05 06:47:21;;;;;;;15.38;7.40;;;22.70;99.90;;;;;;5007728;28;20676;-78
2022/06/05 06:49:47;;;;;;;17.63;6.93;;;22.90;99.90;;;;;;5013169;28;20038;-78
2022/06/05 06:52:13;;;;;;;15.43;6.53;;;22.80;99.90;;;;;;5028354;28;20068;-78
2022/06/05 06:54:38;;;;;;;18.48;8.07;;;22.90;99.90;;;;;;5026392;28;20026;-78
2022/06/05 06:57:04;;;;;;;14.45;7.07;;;23.00;99.90;;;;;;5026623;28;20091;-78
2022/06/05 06:59:30;;;;;;;18.73;7.78;;;23.00;99.90;;;;;;5027892;28;20033;-78
2022/06/05 07:01:56;;;;;;;12.93;6.30;;;23.10;99.90;;;;;;5027212;28;20121;-78
2022/06/05 07:04:21;;;;;;;24.35;7.53;;;23.10;99.90;;;;;;5026075;28;20061;-78
2022/06/05 07:06:48;;;;;;;11.77;6.00;;;23.00;99.90;;;;;;5026705;28;20927;-78
2022/06/05 07:09:14;;;;;;;19.58;7.60;;;23.00;99.90;;;;;;5018528;28;20030;-78
2022/06/05 07:11:41;;;;;;;13.77;6.22;;;23.00;99.90;;;;;;5024795;28;20025;-78
2022/06/05 07:14:07;;;;;;;16.15;7.25;;;23.10;99.90;;;;;;5024467;28;20033;-77
2022/06/05 07:16:32;;;;;;;13.85;6.28;;;23.20;99.90;;;;;;5007108;28;20056;-78
2022/06/05 07:18:58;;;;;;;20.63;7.18;;;23.40;99.90;;;;;;5014926;28;20250;-78
2022/06/05 07:21:26;;;;;;;18.08;6.63;;;23.60;99.90;;;;;;5027597;28;20069;-78
2022/06/05 07:23:52;;;;;;;13.23;7.93;;;23.70;99.90;;;;;;5027505;28;20038;-78
2022/06/05 07:26:19;;;;;;;16.80;7.30;;;23.80;99.90;;;;;;5027342;28;20040;-78
2022/06/05 07:28:46;;;;;;;23.75;7.10;;;23.90;99.90;;;;;;5026971;28;20029;-78
2022/06/05 07:31:13;;;;;;;13.80;6.22;;;24.10;99.90;;;;;;5027243;28;20029;-78
2022/06/05 07:33:41;;;;;;;15.98;7.25;;;24.20;99.90;;;;;;5026497;28;20225;-78
2022/06/05 07:36:10;;;;;;;11.18;7.63;;;24.30;99.90;;;;;;5027440;28;20022;-78
2022/06/05 07:38:37;;;;;;;19.33;6.32;;;24.90;99.90;;;;;;5027208;28;20591;-78
2022/06/05 07:41:05;;;;;;;21.17;6.80;;;25.50;99.50;;;;;;5027168;28;20030;-78
2022/06/05 07:43:31;;;;;;;10.63;5.88;;;26.40;98.70;;;;;;5027128;28;20220;-78
2022/06/05 07:45:57;;;;;;;18.05;5.80;;;26.80;97.90;;;;;;5026063;28;20483;-78
2022/06/05 07:48:22;;;;;;;19.77;6.43;;;26.60;98.00;;;;;;5027211;28;20060;-78
2022/06/05 07:56:27;;;;;;;;;;;26.60;97.00;;;;;;5030011;28;21006;-78
2022/06/05 07:58:52;;;;;;;17.08;6.88;;;26.00;98.00;;;;;;5029649;28;20012;-78
2022/06/05 08:01:18;;;;;;;11.43;6.32;;;25.60;98.30;;;;;;5029653;28;20068;-78
2022/06/05 08:03:43;;;;;;;15.80;6.72;;;25.50;98.10;;;;;;5029962;28;20038;-78
2022/06/05 08:06:09;;;;;;;22.50;7.35;;;25.50;99.00;;;;;;5020069;28;20468;-78
2022/06/05 08:08:35;;;;;;;13.90;6.20;;;25.70;98.80;;;;;;5014558;28;20460;-79
2022/06/05 08:11:07;;;;;;;12.52;6.88;;;25.50;99.10;;;;;;5009658;28;20476;-79
2022/06/05 08:13:32;;;;;;;17.92;6.97;;;25.70;98.60;;;;;;5009615;28;20030;-78
2022/06/05 08:15:58;;;;;;;18.00;6.70;;;26.00;98.40;;;;;;5023649;28;20424;-79
2022/06/05 08:18:24;;;;;;;14.93;6.10;;;25.60;98.80;;;;;;5028867;28;20026;-79
2022/06/05 08:20:50;;;;;;;15.07;7.13;;;25.80;98.60;;;;;;5026408;28;20052;-79
2022/06/05 08:23:16;;;;;;;16.52;7.82;;;25.70;99.00;;;;;;5025860;28;20519;-78
2022/06/05 08:25:42;;;;;;;19.25;7.47;;;25.90;99.40;;;;;;5025440;28;20122;-79
2022/06/05 08:28:08;;;;;;;15.50;7.45;;;26.30;98.90;;;;;;5026230;28;20582;-78
2022/06/05 08:30:35;;;;;;;21.38;7.65;;;26.20;99.50;;;;;;5026187;28;20060;-78
2022/06/05 08:33:01;;;;;;;17.10;6.80;;;26.20;99.50;;;;;;5028761;28;20035;-79
2022/06/05 08:35:26;;;;;;;14.82;7.28;;;26.30;99.50;;;;;;5028706;28;20402;-79
2022/06/05 08:44:12;;;;;;;14.02;5.93;;;26.60;99.40;;;;;;5008989;28;20515;-79
2022/06/05 08:46:47;;;;;;;12.02;6.20;;;27.00;98.30;;;;;;4981946;28;20049;-79
2022/06/05 08:49:30;;;;;;;15.38;6.93;;;26.80;98.80;;;;;;5009265;28;20029;-79
2022/06/05 08:52:09;;;;;;;17.90;6.97;;;27.10;98.60;;;;;;5027365;28;20464;-79
2022/06/05 08:54:44;;;;;;;14.63;6.47;;;26.90;97.90;;;;;;5028637;28;20103;-79
2022/06/05 08:57:27;;;;;;;15.25;6.45;;;26.80;98.00;;;;;;5028770;28;20037;-79
2022/06/05 09:00:08;;;;;;;15.20;7.60;;;26.90;98.00;;;;;;5028825;28;20056;-79
2022/06/05 09:02:43;;;;;;;13.10;6.85;;;26.80;98.00;;;;;;5028761;28;20489;-79
2022/06/05 09:05:23;;;;;;;18.88;7.07;;;27.00;98.30;;;;;;5028248;28;20035;-79
2022/06/05 09:07:56;;;;;;;15.35;8.45;;;27.60;98.10;;;;;;5012902;28;20108;-79
2022/06/05 09:10:27;;;;;;;13.50;5.85;;;27.80;97.90;;;;;;5010386;28;20045;-79
2022/06/05 09:13:08;;;;;;;10.90;6.10;;;27.60;96.90;;;;;;5023783;28;20194;-79
2022/06/05 09:15:42;;;;;;;15.02;7.68;;;27.80;97.80;;;;;;5024293;28;20033;-79
2022/06/05 09:18:22;;;;;;;16.05;6.72;;;27.40;97.00;;;;;;5014359;28;20033;-79
2022/06/05 09:20:53;;;;;;;16.25;8.02;;;27.60;96.80;;;;;;5013303;28;20029;-79
2022/06/05 09:23:44;;;;;;;11.35;6.80;;;27.80;97.60;;;;;;5013009;28;20030;-79
2022/06/05 09:26:22;;;;;;;14.65;7.35;;;27.70;97.20;;;;;;5012631;28;20026;-79
2022/06/05 09:28:56;;;;;;;14.52;6.63;;;28.10;97.30;;;;;;5012776;28;20342;-79
2022/06/05 09:31:30;;;;;;;12.30;7.32;;;27.90;96.70;;;;;;5031610;28;20499;-79
2022/06/05 09:33:58;;;;;;;17.38;7.07;;;27.60;96.20;;;;;;5032619;28;20033;-79
2022/06/05 09:36:27;;;;;;;18.38;6.82;;;27.60;96.80;;;;;;5032452;28;20024;-79
2022/06/05 09:39:00;;;;;;;13.38;6.28;;;27.90;97.50;;;;;;5032276;28;20029;-79
2022/06/05 09:42:00;;;;;;;13.52;6.15;;;28.10;96.80;;;;;;5032391;28;20044;-79
2022/06/05 09:44:50;;;;;;;13.10;5.97;;;28.40;96.60;;;;;;5031222;28;20041;-79
2022/06/05 09:47:23;;;;;;;19.10;7.05;;;28.20;96.20;;;;;;5032204;28;20025;-79
2022/06/05 09:49:54;;;;;;;11.00;6.75;;;28.10;96.40;;;;;;5032461;28;20030;-79
2022/06/05 09:52:26;;;;;;;14.18;6.63;;;28.40;96.40;;;;;;5032194;28;20053;-79
2022/06/05 09:55:16;;;;;;;15.05;6.68;;;28.70;97.00;;;;;;5031960;28;20022;-79
2022/06/05 10:00:38;;;;;;;16.17;6.57;;;28.80;96.80;;;;;;5029824;28;20396;-79
2022/06/05 10:03:09;;;;;;;13.25;6.43;;;28.80;95.90;;;;;;5031442;28;20030;-79
2022/06/05 10:05:37;;;;;;;14.43;6.75;;;28.60;96.00;;;;;;5031788;28;20025;-78
2022/06/05 10:08:06;;;;;;;15.02;6.63;;;28.60;95.60;;;;;;5032062;28;20507;-79
2022/06/05 10:10:38;;;;;;;14.57;6.50;;;28.60;95.70;;;;;;5031969;28;20029;-78
2022/06/05 10:13:28;;;;;;;13.73;5.97;;;28.50;95.10;;;;;;5032211;28;20022;-79
2022/06/05 10:16:06;;;;;;;13.35;6.38;;;28.60;95.60;;;;;;5031749;28;20044;-79
2022/06/05 10:18:52;;;;;;;19.23;7.55;;;28.90;95.20;;;;;;5031871;28;20138;-79
2022/06/05 10:21:20;;;;;;;14.68;6.88;;;28.80;95.50;;;;;;5031987;28;20405;-79
2022/06/05 10:23:57;;;;;;;12.13;6.55;;;29.00;96.10;;;;;;5031404;28;20042;-79
2022/06/05 10:26:32;;;;;;;26.15;6.43;;;28.90;95.90;;;;;;5031519;28;20037;-79
2022/06/05 10:29:28;;;;;;;14.90;5.80;;;29.00;96.20;;;;;;5031273;28;20030;-79
2022/06/05 10:31:59;;;;;;;17.25;6.35;;;29.20;95.80;;;;;;5029786;28;20065;-79
2022/06/05 10:34:52;;;;;;;15.18;5.97;;;29.30;96.00;;;;;;5029037;28;20381;-79
2022/06/05 10:37:49;;;;;;;15.93;6.13;;;29.60;95.60;;;;;;5002909;28;20041;-78
2022/06/05 10:40:25;;;;;;;12.20;5.72;;;29.30;95.70;;;;;;5021574;28;20096;-79
2022/06/05 10:43:01;;;;;;;17.00;5.75;;;29.60;95.90;;;;;;5023058;28;20029;-79
2022/06/05 10:45:42;;;;;;;30.20;7.30;;;29.80;96.40;;;;;;5030547;28;20049;-79
2022/06/05 10:48:30;;;;;;;17.83;6.05;;;29.90;95.50;;;;;;5030714;28;20032;-79
2022/06/05 10:51:16;;;;;;;12.77;6.78;;;29.70;95.10;;;;;;5030908;28;20084;-79
2022/06/05 10:54:01;;;;;;;18.20;5.63;;;29.90;95.90;;;;;;5030952;28;20026;-79
2022/06/05 10:56:34;;;;;;;12.25;5.60;;;30.20;94.60;;;;;;5030660;28;20022;-79
2022/06/05 10:59:21;;;;;;;17.70;6.22;;;30.00;94.60;;;;;;5030959;28;20464;-79
2022/06/05 11:02:05;;;;;;;20.75;5.63;;;30.60;94.50;;;;;;5019213;28;20038;-79
2022/06/05 11:05:06;;;;;;;13.80;5.45;;;30.70;94.50;;;;;;5011805;28;20118;-79
2022/06/05 11:07:51;;;;;;;15.55;5.20;;;30.80;93.00;;;;;;5020397;28;20025;-79
2022/06/05 11:13:45;;;;;;;16.83;5.75;;;30.80;92.20;;;;;;5030694;28;20568;-79
2022/06/05 11:16:23;;;;;;;12.05;5.10;;;31.20;92.70;;;;;;5029069;28;20407;-79
2022/06/05 11:19:17;;;;;;;16.55;5.70;;;31.50;92.40;;;;;;5030352;28;20025;-79
2022/06/05 11:21:44;;;;;;;16.38;6.60;;;31.70;92.90;;;;;;5030592;28;20030;-79
2022/06/05 11:24:25;;;;;;;15.70;6.15;;;31.50;92.60;;;;;;5030327;28;20404;-79
2022/06/05 11:27:06;;;;;;;14.45;6.07;;;31.40;92.00;;;;;;5029893;28;20105;-79
2022/06/05 11:29:59;;;;;;;11.68;5.63;;;31.70;92.00;;;;;;5029926;28;20049;-79
2022/06/05 11:33:02;;;;;;;14.45;5.05;;;31.70;92.40;;;;;;5016655;28;20087;-80
2022/06/05 11:35:33;;;;;;;15.98;5.75;;;31.80;92.10;;;;;;5009617;28;20113;-79
2022/06/05 11:38:04;;;;;;;15.70;6.25;;;31.80;91.60;;;;;;5009843;28;20033;-79
2022/06/05 11:41:06;;;;;;;19.00;6.15;;;31.80;92.00;;;;;;5021259;28;20033;-79
2022/06/05 11:43:39;;;;;;;18.85;6.03;;;31.90;91.00;;;;;;5030107;28;20402;-79
2022/06/05 11:46:18;;;;;;;;;;;31.70;91.30;;;;;;5030404;28;20379;-79
2022/06/05 11:48:52;;;;;;;12.07;5.55;;;31.60;91.20;;;;;;5029386;28;20564;-79
2022/06/05 11:51:39;;;;;;;21.35;7.15;;;31.60;91.30;;;;;;5029453;28;20025;-79
2022/06/05 11:54:07;;;;;;;16.02;5.13;;;31.40;92.00;;;;;;5029670;28;20380;-79
2022/06/05 11:57:06;;;;;;;12.13;6.45;;;31.50;91.40;;;;;;5029109;28;20029;-79
2022/06/05 11:59:50;;;;;;;18.63;5.53;;;31.80;92.40;;;;;;5029585;28;20029;-79
2022/06/05 12:02:27;;;;;;;14.88;4.95;;;32.00;91.50;;;;;;5012235;28;20343;-79
2022/06/05 12:05:00;;;;;;;18.02;6.43;;;31.90;91.10;;;;;;5010014;28;20068;-79
2022/06/05 12:07:27;;;;;;;13.73;6.07;;;31.70;91.70;;;;;;5028807;28;20430;-79
2022/06/05 12:10:24;;;;;;;14.95;5.82;;;31.30;91.70;;;;;;5029242;28;20488;-79
2022/06/05 12:13:28;;;;;;;13.57;5.93;;;31.40;91.70;;;;;;5029356;28;20132;-79
2022/06/05 12:16:10;;;;;;;15.13;6.15;;;31.70;91.50;;;;;;5029413;28;20026;-79
2022/06/05 12:18:43;;;;;;;20.70;7.23;;;32.00;92.10;;;;;;5029718;28;20558;-79
2022/06/05 12:21:09;;;;;;;13.82;5.78;;;32.20;91.50;;;;;;5029495;28;20267;-79
2022/06/05 12:23:41;;;;;;;14.95;6.03;;;32.50;91.70;;;;;;5029312;28;20049;-79
2022/06/05 12:26:36;;;;;;;23.90;7.03;;;32.50;91.90;;;;;;5029399;28;20029;-80
2022/06/05 12:29:10;;;;;;;17.35;6.45;;;32.70;90.80;;;;;;5029423;28;20272;-79
2022/06/05 12:31:44;;;;;;;20.35;5.75;;;31.90;90.40;;;;;;5014848;28;20045;-79
2022/06/05 12:34:18;;;;;;;18.83;6.00;;;32.00;90.90;;;;;;5009536;28;20431;-79
2022/06/05 12:36:45;;;;;;;;;;;32.40;90.90;;;;;;5009812;28;20389;-79
2022/06/05 12:39:23;;;;;;;15.73;5.30;;;32.40;90.60;;;;;;5009260;28;19982;-79
2022/06/05 12:41:55;;;;;;;12.82;5.72;;;32.40;91.00;;;;;;5009002;28;20030;-79
2022/06/05 12:44:26;;;;;;;18.05;6.57;;;32.70;90.70;;;;;;5009562;28;20038;-79
2022/06/05 12:47:16;;;;;;;16.52;6.45;;;32.70;90.40;;;;;;5028259;28;20163;-79
2022/06/05 12:49:55;;;;;;;19.10;6.93;;;32.40;90.60;;;;;;5011515;28;20042;-79
2022/06/05 12:52:30;;;;;;;16.40;6.00;;;32.00;90.40;;;;;;5008812;28;20029;-80
2022/06/05 12:55:03;;;;;;;23.00;6.80;;;32.50;90.70;;;;;;5027905;28;20400;-80
2022/06/05 12:57:49;;;;;;;12.77;6.25;;;32.40;90.50;;;;;;5028706;28;20037;-79
2022/06/05 13:00:34;;;;;;;14.88;5.72;;;32.60;90.10;;;;;;5028863;28;20440;-79
2022/06/05 13:03:19;;;;;;;19.67;6.97;;;32.80;90.70;;;;;;5021755;28;20045;-79
2022/06/05 13:06:02;;;;;;;18.23;6.80;;;33.00;90.50;;;;;;5026415;28;20033;-79
2022/06/05 13:08:30;;;;;;;21.55;6.93;;;32.50;90.60;;;;;;5029052;28;20029;-80
2022/06/05 13:11:12;;;;;;;15.45;5.72;;;32.30;90.70;;;;;;5028348;28;20034;-79
2022/06/05 13:13:51;;;;;;;13.50;5.82;;;32.40;90.60;;;;;;5028753;28;20128;-80
2022/06/05 13:16:30;;;;;;;17.50;5.82;;;32.30;90.30;;;;;;5028872;28;20037;-80
2022/06/05 13:19:08;;;;;;;18.45;6.85;;;32.00;90.40;;;;;;5028689;28;20104;-79
2022/06/05 13:21:40;;;;;;;15.98;6.85;;;31.80;90.60;;;;;;5028492;28;20109;-80
2022/06/05 13:24:32;;;;;;;19.47;6.97;;;31.80;90.70;;;;;;5028827;28;20172;-79
2022/06/05 13:27:20;;;;;;;19.23;6.72;;;31.80;90.40;;;;;;5028201;28;20048;-80
2022/06/05 13:29:55;;;;;;;23.08;7.97;;;31.90;90.40;;;;;;5026652;28;20511;-80
2022/06/05 13:32:58;;;;;;;27.15;7.10;;;32.50;90.80;;;;;;5028392;28;20099;-80